sensor_id;sensor_type;location;lat;lon;timestamp;pressure;altitude;pressure_sealevel;temperature;humidity
48810;BME280;40070;47.322;18.784;2023-10-13T00:00:24;1004.85;;;15.55;76.33
48810;BME280;40070;47.322;18.784;2023-10-13T00:02:26;1004.87;;;15.53;75.36
48810;BME280;40070;47.322;18.784;2023-10-13T00:04:29;1004.87;;;15.31;76.10
48810;BME280;40070;47.322;18.784;2023-10-13T00:06:31;1004.82;;;15.32;76.66
48810;BME280;40070;47.322;18.784;2023-10-13T00:08:34;1004.85;;;15.42;76.16
48810;BME280;40070;47.322;18.784;2023-10-13T00:10:36;1004.87;;;15.43;75.52
48810;BME280;40070;47.322;18.784;2023-10-13T00:12:39;1004.91;;;15.22;76.65
48810;BME280;40070;47.322;18.784;2023-10-13T00:14:41;1004.94;;;15.10;77.26
48810;BME280;40070;47.322;18.784;2023-10-13T00:16:44;1004.97;;;15.22;76.81
48810;BME280;40070;47.322;18.784;2023-10-13T00:18:47;1004.95;;;15.29;76.42
48810;BME280;40070;47.322;18.784;2023-10-13T00:20:50;1004.94;;;15.31;76.34
48810;BME280;40070;47.322;18.784;2023-10-13T00:22:52;1004.99;;;15.27;76.84
48810;BME280;40070;47.322;18.784;2023-10-13T00:24:55;1005.01;;;15.29;76.48
48810;BME280;40070;47.322;18.784;2023-10-13T00:26:57;1004.98;;;15.47;75.63
48810;BME280;40070;47.322;18.784;2023-10-13T00:29:00;1004.99;;;15.49;75.14
48810;BME280;40070;47.322;18.784;2023-10-13T00:31:03;1004.99;;;15.40;74.72
48810;BME280;40070;47.322;18.784;2023-10-13T00:33:05;1005.00;;;15.23;75.46
48810;BME280;40070;47.322;18.784;2023-10-13T00:35:11;1004.93;;;15.25;74.75
48810;BME280;40070;47.322;18.784;2023-10-13T00:37:13;1004.87;;;15.22;74.23
48810;BME280;40070;47.322;18.784;2023-10-13T00:39:16;1004.88;;;15.05;74.58
48810;BME280;40070;47.322;18.784;2023-10-13T00:41:18;1004.86;;;15.23;74.21
48810;BME280;40070;47.322;18.784;2023-10-13T00:43:21;1004.90;;;15.30;74.22
48810;BME280;40070;47.322;18.784;2023-10-13T00:45:24;1004.92;;;15.08;75.85
48810;BME280;40070;47.322;18.784;2023-10-13T00:47:27;1004.89;;;15.21;75.19
48810;BME280;40070;47.322;18.784;2023-10-13T00:49:29;1004.90;;;15.21;74.93
48810;BME280;40070;47.322;18.784;2023-10-13T00:51:32;1004.86;;;15.32;74.32
48810;BME280;40070;47.322;18.784;2023-10-13T00:53:35;1004.88;;;15.33;74.11
48810;BME280;40070;47.322;18.784;2023-10-13T00:55:38;1004.88;;;15.28;74.51
48810;BME280;40070;47.322;18.784;2023-10-13T00:57:40;1004.86;;;15.03;75.29
48810;BME280;40070;47.322;18.784;2023-10-13T00:59:43;1004.89;;;15.02;75.50
48810;BME280;40070;47.322;18.784;2023-10-13T01:01:46;1004.89;;;15.14;75.38
48810;BME280;40070;47.322;18.784;2023-10-13T01:03:49;1004.90;;;15.17;75.20
48810;BME280;40070;47.322;18.784;2023-10-13T01:05:55;1004.89;;;15.19;75.04
48810;BME280;40070;47.322;18.784;2023-10-13T01:08:01;1004.87;;;15.18;75.14
48810;BME280;40070;47.322;18.784;2023-10-13T01:10:04;1004.84;;;15.13;75.40
48810;BME280;40070;47.322;18.784;2023-10-13T01:12:07;1004.80;;;15.10;76.13
48810;BME280;40070;47.322;18.784;2023-10-13T01:14:13;1004.74;;;15.20;75.92
48810;BME280;40070;47.322;18.784;2023-10-13T01:16:15;1004.71;;;15.02;76.49
48810;BME280;40070;47.322;18.784;2023-10-13T01:18:18;1004.72;;;15.08;76.28
48810;BME280;40070;47.322;18.784;2023-10-13T01:20:20;1004.77;;;15.20;75.90
48810;BME280;40070;47.322;18.784;2023-10-13T01:22:23;1004.73;;;15.18;75.91
48810;BME280;40070;47.322;18.784;2023-10-13T01:24:25;1004.68;;;15.18;76.05
48810;BME280;40070;47.322;18.784;2023-10-13T01:26:28;1004.64;;;15.06;76.52
48810;BME280;40070;47.322;18.784;2023-10-13T01:28:30;1004.66;;;15.28;75.80
48810;BME280;40070;47.322;18.784;2023-10-13T01:30:33;1004.73;;;15.26;75.48
48810;BME280;40070;47.322;18.784;2023-10-13T01:32:35;1004.68;;;15.32;75.19
48810;BME280;40070;47.322;18.784;2023-10-13T01:34:38;1004.67;;;15.28;75.59
48810;BME280;40070;47.322;18.784;2023-10-13T01:36:40;1004.71;;;15.19;76.09
48810;BME280;40070;47.322;18.784;2023-10-13T01:38:43;1004.74;;;15.12;76.44
48810;BME280;40070;47.322;18.784;2023-10-13T01:40:45;1004.67;;;15.24;75.98
48810;BME280;40070;47.322;18.784;2023-10-13T01:42:48;1004.71;;;15.13;75.98
48810;BME280;40070;47.322;18.784;2023-10-13T01:44:50;1004.71;;;15.01;76.53
48810;BME280;40070;47.322;18.784;2023-10-13T01:46:53;1004.60;;;15.04;76.44
48810;BME280;40070;47.322;18.784;2023-10-13T01:48:56;1004.57;;;15.02;76.56
48810;BME280;40070;47.322;18.784;2023-10-13T01:50:58;1004.66;;;15.20;76.18
48810;BME280;40070;47.322;18.784;2023-10-13T01:53:01;1004.84;;;14.95;76.27
48810;BME280;40070;47.322;18.784;2023-10-13T01:55:03;1004.89;;;14.89;76.41
48810;BME280;40070;47.322;18.784;2023-10-13T01:57:09;1004.87;;;14.92;76.36
48810;BME280;40070;47.322;18.784;2023-10-13T01:59:11;1004.88;;;15.18;75.40
48810;BME280;40070;47.322;18.784;2023-10-13T02:01:14;1004.91;;;15.19;75.10
48810;BME280;40070;47.322;18.784;2023-10-13T02:03:16;1004.92;;;15.20;75.23
48810;BME280;40070;47.322;18.784;2023-10-13T02:05:19;1004.95;;;14.92;76.14
48810;BME280;40070;47.322;18.784;2023-10-13T02:07:21;1004.90;;;14.72;77.43
48810;BME280;40070;47.322;18.784;2023-10-13T02:09:24;1004.88;;;14.82;77.16
48810;BME280;40070;47.322;18.784;2023-10-13T02:11:26;1004.85;;;14.96;76.44
48810;BME280;40070;47.322;18.784;2023-10-13T02:13:29;1004.82;;;15.00;76.56
48810;BME280;40070;47.322;18.784;2023-10-13T02:15:31;1004.81;;;14.99;76.92
48810;BME280;40070;47.322;18.784;2023-10-13T02:17:34;1004.89;;;15.08;76.85
48810;BME280;40070;47.322;18.784;2023-10-13T02:19:36;1004.90;;;14.92;78.10
48810;BME280;40070;47.322;18.784;2023-10-13T02:21:39;1004.93;;;15.00;78.65
48810;BME280;40070;47.322;18.784;2023-10-13T02:23:41;1004.91;;;15.12;78.19
48810;BME280;40070;47.322;18.784;2023-10-13T02:25:44;1004.82;;;15.22;77.83
48810;BME280;40070;47.322;18.784;2023-10-13T02:27:46;1004.76;;;15.06;78.47
48810;BME280;40070;47.322;18.784;2023-10-13T02:29:49;1004.79;;;15.17;78.17
48810;BME280;40070;47.322;18.784;2023-10-13T02:31:52;1004.87;;;15.10;78.40
48810;BME280;40070;47.322;18.784;2023-10-13T02:33:54;1004.94;;;14.83;79.67
48810;BME280;40070;47.322;18.784;2023-10-13T02:35:57;1004.90;;;14.92;79.85
48810;BME280;40070;47.322;18.784;2023-10-13T02:37:59;1004.89;;;15.07;79.26
48810;BME280;40070;47.322;18.784;2023-10-13T02:40:02;1004.88;;;15.13;78.87
48810;BME280;40070;47.322;18.784;2023-10-13T02:42:04;1004.85;;;15.14;78.70
48810;BME280;40070;47.322;18.784;2023-10-13T02:44:07;1004.87;;;15.21;78.72
48810;BME280;40070;47.322;18.784;2023-10-13T02:46:09;1004.90;;;15.02;79.18
48810;BME280;40070;47.322;18.784;2023-10-13T02:48:12;1004.83;;;15.36;78.25
48810;BME280;40070;47.322;18.784;2023-10-13T02:50:14;1004.85;;;14.92;79.23
48810;BME280;40070;47.322;18.784;2023-10-13T02:52:17;1004.86;;;15.18;78.58
48810;BME280;40070;47.322;18.784;2023-10-13T02:54:19;1004.80;;;15.31;78.18
48810;BME280;40070;47.322;18.784;2023-10-13T02:56:22;1004.94;;;15.18;78.29
48810;BME280;40070;47.322;18.784;2023-10-13T02:58:24;1004.94;;;15.43;77.90
48810;BME280;40070;47.322;18.784;2023-10-13T03:00:27;1005.00;;;15.45;77.55
48810;BME280;40070;47.322;18.784;2023-10-13T03:02:29;1004.94;;;15.51;77.40
48810;BME280;40070;47.322;18.784;2023-10-13T03:04:32;1004.99;;;15.56;77.22
48810;BME280;40070;47.322;18.784;2023-10-13T03:06:35;1005.04;;;15.50;77.42
48810;BME280;40070;47.322;18.784;2023-10-13T03:08:37;1005.11;;;15.50;77.73
48810;BME280;40070;47.322;18.784;2023-10-13T03:10:40;1005.15;;;15.24;78.72
48810;BME280;40070;47.322;18.784;2023-10-13T03:12:42;1005.19;;;15.19;79.21
48810;BME280;40070;47.322;18.784;2023-10-13T03:14:45;1005.17;;;15.27;79.09
48810;BME280;40070;47.322;18.784;2023-10-13T03:16:47;1005.09;;;15.34;79.04
48810;BME280;40070;47.322;18.784;2023-10-13T03:18:50;1005.14;;;15.50;78.45
48810;BME280;40070;47.322;18.784;2023-10-13T03:20:52;1005.14;;;15.48;78.48
48810;BME280;40070;47.322;18.784;2023-10-13T03:22:55;1005.02;;;15.46;78.52
48810;BME280;40070;47.322;18.784;2023-10-13T03:24:57;1004.94;;;15.55;78.39
48810;BME280;40070;47.322;18.784;2023-10-13T03:27:01;1004.96;;;15.68;77.71
48810;BME280;40070;47.322;18.784;2023-10-13T03:29:03;1004.91;;;15.63;77.96
48810;BME280;40070;47.322;18.784;2023-10-13T03:31:06;1004.92;;;15.53;78.57
48810;BME280;40070;47.322;18.784;2023-10-13T03:33:09;1004.99;;;15.51;78.77
48810;BME280;40070;47.322;18.784;2023-10-13T03:35:12;1004.94;;;15.48;79.41
48810;BME280;40070;47.322;18.784;2023-10-13T03:37:16;1004.80;;;15.52;79.19
48810;BME280;40070;47.322;18.784;2023-10-13T03:39:18;1004.71;;;15.23;80.80
48810;BME280;40070;47.322;18.784;2023-10-13T03:41:21;1004.74;;;15.57;80.02
48810;BME280;40070;47.322;18.784;2023-10-13T03:43:23;1004.73;;;15.39;80.44
48810;BME280;40070;47.322;18.784;2023-10-13T03:45:26;1004.78;;;15.67;79.27
48810;BME280;40070;47.322;18.784;2023-10-13T03:47:29;1004.78;;;15.68;79.25
48810;BME280;40070;47.322;18.784;2023-10-13T03:49:31;1004.80;;;15.88;78.43
48810;BME280;40070;47.322;18.784;2023-10-13T03:51:34;1004.76;;;15.89;78.39
48810;BME280;40070;47.322;18.784;2023-10-13T03:53:37;1004.75;;;15.85;78.57
48810;BME280;40070;47.322;18.784;2023-10-13T03:55:40;1004.73;;;15.89;78.49
48810;BME280;40070;47.322;18.784;2023-10-13T03:57:43;1004.74;;;15.89;78.42
48810;BME280;40070;47.322;18.784;2023-10-13T03:59:45;1004.68;;;15.87;78.56
48810;BME280;40070;47.322;18.784;2023-10-13T04:01:48;1004.66;;;15.93;78.51
48810;BME280;40070;47.322;18.784;2023-10-13T04:03:50;1004.67;;;16.04;78.08
48810;BME280;40070;47.322;18.784;2023-10-13T04:05:53;1004.70;;;16.03;77.98
48810;BME280;40070;47.322;18.784;2023-10-13T04:08:01;1004.71;;;16.09;77.68
48810;BME280;40070;47.322;18.784;2023-10-13T04:10:04;1004.72;;;15.88;78.53
48810;BME280;40070;47.322;18.784;2023-10-13T04:12:07;1004.64;;;16.00;78.20
48810;BME280;40070;47.322;18.784;2023-10-13T04:14:10;1004.65;;;15.95;78.38
48810;BME280;40070;47.322;18.784;2023-10-13T04:16:12;1004.59;;;15.95;78.56
48810;BME280;40070;47.322;18.784;2023-10-13T04:18:15;1004.60;;;15.92;78.43
48810;BME280;40070;47.322;18.784;2023-10-13T04:20:17;1004.59;;;15.93;78.31
48810;BME280;40070;47.322;18.784;2023-10-13T04:22:20;1004.58;;;15.96;77.97
48810;BME280;40070;47.322;18.784;2023-10-13T04:24:22;1004.53;;;15.86;78.10
48810;BME280;40070;47.322;18.784;2023-10-13T04:26:25;1004.54;;;15.70;78.87
48810;BME280;40070;47.322;18.784;2023-10-13T04:28:28;1004.55;;;15.85;78.44
48810;BME280;40070;47.322;18.784;2023-10-13T04:30:35;1004.54;;;15.74;78.64
48810;BME280;40070;47.322;18.784;2023-10-13T04:32:37;1004.55;;;15.85;78.73
48810;BME280;40070;47.322;18.784;2023-10-13T04:34:40;1004.59;;;15.97;78.06
48810;BME280;40070;47.322;18.784;2023-10-13T04:36:44;1004.64;;;15.83;78.15
48810;BME280;40070;47.322;18.784;2023-10-13T04:38:46;1004.66;;;15.88;78.59
48810;BME280;40070;47.322;18.784;2023-10-13T04:40:49;1004.59;;;15.94;78.20
48810;BME280;40070;47.322;18.784;2023-10-13T04:42:52;1004.63;;;15.78;79.05
48810;BME280;40070;47.322;18.784;2023-10-13T04:44:54;1004.61;;;15.90;78.55
48810;BME280;40070;47.322;18.784;2023-10-13T04:46:58;1004.62;;;16.23;77.27
48810;BME280;40070;47.322;18.784;2023-10-13T04:49:01;1004.65;;;16.02;77.82
48810;BME280;40070;47.322;18.784;2023-10-13T04:51:03;1004.70;;;16.21;77.26
48810;BME280;40070;47.322;18.784;2023-10-13T04:53:06;1004.70;;;16.08;77.51
48810;BME280;40070;47.322;18.784;2023-10-13T04:55:08;1004.75;;;16.08;77.65
48810;BME280;40070;47.322;18.784;2023-10-13T04:57:11;1004.77;;;16.00;77.92
48810;BME280;40070;47.322;18.784;2023-10-13T04:59:14;1004.85;;;16.09;77.60
48810;BME280;40070;47.322;18.784;2023-10-13T05:01:16;1004.87;;;16.24;77.04
48810;BME280;40070;47.322;18.784;2023-10-13T05:03:18;1004.87;;;16.06;77.51
48810;BME280;40070;47.322;18.784;2023-10-13T05:05:21;1004.85;;;16.09;78.08
48810;BME280;40070;47.322;18.784;2023-10-13T05:07:24;1004.88;;;16.09;77.75
48810;BME280;40070;47.322;18.784;2023-10-13T05:09:27;1004.90;;;16.14;77.74
48810;BME280;40070;47.322;18.784;2023-10-13T05:11:29;1004.93;;;16.15;77.46
48810;BME280;40070;47.322;18.784;2023-10-13T05:13:31;1004.92;;;16.19;77.36
48810;BME280;40070;47.322;18.784;2023-10-13T05:15:41;1004.92;;;16.25;77.17
48810;BME280;40070;47.322;18.784;2023-10-13T05:17:44;1004.94;;;16.30;76.90
48810;BME280;40070;47.322;18.784;2023-10-13T05:19:46;1004.90;;;16.34;76.46
48810;BME280;40070;47.322;18.784;2023-10-13T05:21:49;1004.91;;;16.34;76.62
48810;BME280;40070;47.322;18.784;2023-10-13T05:23:51;1004.95;;;16.18;77.43
48810;BME280;40070;47.322;18.784;2023-10-13T05:25:54;1005.02;;;16.11;77.90
48810;BME280;40070;47.322;18.784;2023-10-13T05:27:57;1005.03;;;16.13;77.85
48810;BME280;40070;47.322;18.784;2023-10-13T05:29:59;1005.08;;;16.20;77.65
48810;BME280;40070;47.322;18.784;2023-10-13T05:32:02;1005.14;;;16.29;77.44
48810;BME280;40070;47.322;18.784;2023-10-13T05:34:04;1005.28;;;15.87;79.02
48810;BME280;40070;47.322;18.784;2023-10-13T05:36:10;1005.33;;;15.82;79.90
48810;BME280;40070;47.322;18.784;2023-10-13T05:38:13;1005.37;;;15.85;80.26
48810;BME280;40070;47.322;18.784;2023-10-13T05:40:15;1005.40;;;16.12;78.91
48810;BME280;40070;47.322;18.784;2023-10-13T05:42:18;1005.33;;;16.22;78.19
48810;BME280;40070;47.322;18.784;2023-10-13T05:44:20;1005.38;;;16.25;78.39
48810;BME280;40070;47.322;18.784;2023-10-13T05:46:24;1005.45;;;16.00;79.37
48810;BME280;40070;47.322;18.784;2023-10-13T05:48:26;1005.50;;;15.86;80.21
48810;BME280;40070;47.322;18.784;2023-10-13T05:50:29;1005.53;;;16.07;79.64
48810;BME280;40070;47.322;18.784;2023-10-13T05:52:31;1005.51;;;16.16;79.57
48810;BME280;40070;47.322;18.784;2023-10-13T05:54:34;1005.52;;;16.37;78.60
48810;BME280;40070;47.322;18.784;2023-10-13T05:56:36;1005.56;;;16.38;78.89
48810;BME280;40070;47.322;18.784;2023-10-13T05:58:39;1005.52;;;16.50;78.29
48810;BME280;40070;47.322;18.784;2023-10-13T06:00:41;1005.51;;;16.54;78.16
48810;BME280;40070;47.322;18.784;2023-10-13T06:02:44;1005.51;;;16.60;77.97
48810;BME280;40070;47.322;18.784;2023-10-13T06:04:46;1005.54;;;16.72;77.73
48810;BME280;40070;47.322;18.784;2023-10-13T06:06:49;1005.62;;;16.73;77.60
48810;BME280;40070;47.322;18.784;2023-10-13T06:08:51;1005.61;;;16.80;77.67
48810;BME280;40070;47.322;18.784;2023-10-13T06:11:00;1005.65;;;16.75;77.64
48810;BME280;40070;47.322;18.784;2023-10-13T06:13:03;1005.67;;;16.87;77.48
48810;BME280;40070;47.322;18.784;2023-10-13T06:15:06;1005.65;;;16.87;77.42
48810;BME280;40070;47.322;18.784;2023-10-13T06:17:08;1005.69;;;17.00;77.07
48810;BME280;40070;47.322;18.784;2023-10-13T06:19:11;1005.72;;;17.05;77.07
48810;BME280;40070;47.322;18.784;2023-10-13T06:21:13;1005.75;;;16.92;77.89
48810;BME280;40070;47.322;18.784;2023-10-13T06:23:16;1005.77;;;17.12;76.99
48810;BME280;40070;47.322;18.784;2023-10-13T06:25:19;1005.82;;;17.16;76.85
48810;BME280;40070;47.322;18.784;2023-10-13T06:27:21;1005.77;;;17.23;76.32
48810;BME280;40070;47.322;18.784;2023-10-13T06:29:25;1005.76;;;17.31;75.99
48810;BME280;40070;47.322;18.784;2023-10-13T06:31:27;1005.81;;;17.37;76.09
48810;BME280;40070;47.322;18.784;2023-10-13T06:33:30;1005.83;;;17.49;75.80
48810;BME280;40070;47.322;18.784;2023-10-13T06:35:32;1005.89;;;17.47;75.69
48810;BME280;40070;47.322;18.784;2023-10-13T06:37:35;1005.89;;;17.53;75.62
48810;BME280;40070;47.322;18.784;2023-10-13T06:39:37;1005.89;;;17.65;75.39
48810;BME280;40070;47.322;18.784;2023-10-13T06:41:40;1005.90;;;17.64;75.90
48810;BME280;40070;47.322;18.784;2023-10-13T06:43:42;1005.92;;;17.77;75.53
48810;BME280;40070;47.322;18.784;2023-10-13T06:45:45;1005.92;;;17.89;75.43
48810;BME280;40070;47.322;18.784;2023-10-13T06:47:47;1005.94;;;18.02;75.04
48810;BME280;40070;47.322;18.784;2023-10-13T06:49:50;1006.01;;;18.13;74.80
48810;BME280;40070;47.322;18.784;2023-10-13T06:51:53;1006.02;;;18.24;74.65
48810;BME280;40070;47.322;18.784;2023-10-13T06:53:55;1006.04;;;18.24;74.78
48810;BME280;40070;47.322;18.784;2023-10-13T06:55:58;1006.06;;;18.31;74.68
48810;BME280;40070;47.322;18.784;2023-10-13T06:58:01;1006.06;;;18.33;74.68
48810;BME280;40070;47.322;18.784;2023-10-13T07:00:03;1006.07;;;18.27;74.73
48810;BME280;40070;47.322;18.784;2023-10-13T07:02:06;1006.05;;;18.42;74.56
48810;BME280;40070;47.322;18.784;2023-10-13T07:04:09;1006.09;;;18.51;74.31
48810;BME280;40070;47.322;18.784;2023-10-13T07:06:11;1006.14;;;18.56;74.15
48810;BME280;40070;47.322;18.784;2023-10-13T07:08:14;1006.14;;;18.60;74.12
48810;BME280;40070;47.322;18.784;2023-10-13T07:10:17;1006.15;;;18.61;74.23
48810;BME280;40070;47.322;18.784;2023-10-13T07:12:20;1006.16;;;18.71;74.00
48810;BME280;40070;47.322;18.784;2023-10-13T07:14:22;1006.12;;;18.66;74.22
48810;BME280;40070;47.322;18.784;2023-10-13T07:16:25;1006.08;;;18.80;74.22
48810;BME280;40070;47.322;18.784;2023-10-13T07:18:27;1006.13;;;18.75;74.66
48810;BME280;40070;47.322;18.784;2023-10-13T07:20:30;1006.12;;;18.69;75.08
48810;BME280;40070;47.322;18.784;2023-10-13T07:22:32;1006.15;;;18.75;74.76
48810;BME280;40070;47.322;18.784;2023-10-13T07:24:35;1006.17;;;18.64;74.97
48810;BME280;40070;47.322;18.784;2023-10-13T07:26:37;1006.12;;;18.75;74.46
48810;BME280;40070;47.322;18.784;2023-10-13T07:28:40;1006.14;;;18.69;74.76
48810;BME280;40070;47.322;18.784;2023-10-13T07:30:43;1006.15;;;18.81;74.50
48810;BME280;40070;47.322;18.784;2023-10-13T07:32:45;1006.13;;;18.78;74.49
48810;BME280;40070;47.322;18.784;2023-10-13T07:34:48;1006.13;;;18.83;74.39
48810;BME280;40070;47.322;18.784;2023-10-13T07:36:53;1006.15;;;18.87;74.41
48810;BME280;40070;47.322;18.784;2023-10-13T07:38:56;1006.19;;;18.81;74.66
48810;BME280;40070;47.322;18.784;2023-10-13T07:40:58;1006.23;;;18.71;75.06
48810;BME280;40070;47.322;18.784;2023-10-13T07:43:01;1006.24;;;18.78;74.73
48810;BME280;40070;47.322;18.784;2023-10-13T07:45:04;1006.21;;;18.71;75.33
48810;BME280;40070;47.322;18.784;2023-10-13T07:47:06;1006.14;;;18.92;74.70
48810;BME280;40070;47.322;18.784;2023-10-13T07:49:09;1006.11;;;18.86;74.95
48810;BME280;40070;47.322;18.784;2023-10-13T07:51:11;1006.06;;;18.66;75.98
48810;BME280;40070;47.322;18.784;2023-10-13T07:53:14;1006.01;;;18.85;75.51
48810;BME280;40070;47.322;18.784;2023-10-13T07:55:17;1005.99;;;19.00;75.00
48810;BME280;40070;47.322;18.784;2023-10-13T07:57:19;1006.10;;;18.88;75.29
48810;BME280;40070;47.322;18.784;2023-10-13T07:59:22;1006.11;;;19.01;74.79
48810;BME280;40070;47.322;18.784;2023-10-13T08:01:24;1006.14;;;18.90;75.49
48810;BME280;40070;47.322;18.784;2023-10-13T08:03:27;1006.13;;;19.06;74.67
48810;BME280;40070;47.322;18.784;2023-10-13T08:05:29;1006.13;;;19.18;74.00
48810;BME280;40070;47.322;18.784;2023-10-13T08:07:32;1006.12;;;19.15;74.10
48810;BME280;40070;47.322;18.784;2023-10-13T08:09:34;1006.09;;;19.20;73.93
48810;BME280;40070;47.322;18.784;2023-10-13T08:11:37;1006.08;;;19.02;74.51
48810;BME280;40070;47.322;18.784;2023-10-13T08:13:42;1006.04;;;19.11;74.35
48810;BME280;40070;47.322;18.784;2023-10-13T08:15:45;1005.96;;;18.92;74.99
48810;BME280;40070;47.322;18.784;2023-10-13T08:17:48;1006.03;;;19.02;75.02
48810;BME280;40070;47.322;18.784;2023-10-13T08:19:50;1006.08;;;19.04;75.23
48810;BME280;40070;47.322;18.784;2023-10-13T08:21:57;1006.11;;;19.30;74.33
48810;BME280;40070;47.322;18.784;2023-10-13T08:23:59;1006.08;;;19.33;74.09
48810;BME280;40070;47.322;18.784;2023-10-13T08:26:08;1006.08;;;19.34;74.22
48810;BME280;40070;47.322;18.784;2023-10-13T08:28:11;1006.06;;;19.40;73.50
48810;BME280;40070;47.322;18.784;2023-10-13T08:30:14;1006.05;;;19.32;73.75
48810;BME280;40070;47.322;18.784;2023-10-13T08:32:16;1006.04;;;19.58;73.09
48810;BME280;40070;47.322;18.784;2023-10-13T08:34:19;1006.04;;;19.75;72.40
48810;BME280;40070;47.322;18.784;2023-10-13T08:36:21;1006.07;;;19.75;72.42
48810;BME280;40070;47.322;18.784;2023-10-13T08:38:24;1006.06;;;19.71;72.59
48810;BME280;40070;47.322;18.784;2023-10-13T08:40:27;1006.08;;;19.81;72.00
48810;BME280;40070;47.322;18.784;2023-10-13T08:42:33;1006.11;;;19.92;71.75
48810;BME280;40070;47.322;18.784;2023-10-13T08:44:36;1006.09;;;20.16;71.40
48810;BME280;40070;47.322;18.784;2023-10-13T08:46:38;1006.08;;;20.47;70.32
48810;BME280;40070;47.322;18.784;2023-10-13T08:48:41;1006.08;;;20.53;70.17
48810;BME280;40070;47.322;18.784;2023-10-13T08:50:50;1006.11;;;20.97;69.68
48810;BME280;40070;47.322;18.784;2023-10-13T08:52:52;1006.17;;;21.14;68.59
48810;BME280;40070;47.322;18.784;2023-10-13T08:54:56;1006.16;;;21.64;67.09
48810;BME280;40070;47.322;18.784;2023-10-13T08:57:00;1006.17;;;21.90;66.00
48810;BME280;40070;47.322;18.784;2023-10-13T08:59:02;1006.15;;;21.82;65.60
48810;BME280;40070;47.322;18.784;2023-10-13T09:01:05;1006.14;;;21.81;65.89
48810;BME280;40070;47.322;18.784;2023-10-13T09:03:07;1006.17;;;22.36;64.46
48810;BME280;40070;47.322;18.784;2023-10-13T09:05:10;1006.16;;;22.58;63.52
48810;BME280;40070;47.322;18.784;2023-10-13T09:07:13;1006.14;;;22.57;63.29
48810;BME280;40070;47.322;18.784;2023-10-13T09:09:16;1006.12;;;22.82;62.86
48810;BME280;40070;47.322;18.784;2023-10-13T09:11:18;1006.07;;;22.67;63.08
48810;BME280;40070;47.322;18.784;2023-10-13T09:13:21;1006.09;;;22.90;63.09
48810;BME280;40070;47.322;18.784;2023-10-13T09:15:28;1006.03;;;23.17;62.54
48810;BME280;40070;47.322;18.784;2023-10-13T09:17:30;1005.98;;;23.40;61.89
48810;BME280;40070;47.322;18.784;2023-10-13T09:19:42;1005.95;;;23.74;60.65
48810;BME280;40070;47.322;18.784;2023-10-13T09:21:45;1005.97;;;24.05;59.85
48810;BME280;40070;47.322;18.784;2023-10-13T09:23:47;1005.96;;;24.34;58.98
48810;BME280;40070;47.322;18.784;2023-10-13T09:25:50;1005.96;;;24.63;58.15
48810;BME280;40070;47.322;18.784;2023-10-13T09:27:53;1005.98;;;24.84;57.67
48810;BME280;40070;47.322;18.784;2023-10-13T09:29:56;1005.98;;;24.91;56.79
48810;BME280;40070;47.322;18.784;2023-10-13T09:32:02;1006.02;;;24.82;56.23
48810;BME280;40070;47.322;18.784;2023-10-13T09:34:05;1006.00;;;24.92;55.66
48810;BME280;40070;47.322;18.784;2023-10-13T09:36:07;1005.98;;;25.20;55.65
48810;BME280;40070;47.322;18.784;2023-10-13T09:38:10;1005.94;;;25.08;55.75
48810;BME280;40070;47.322;18.784;2023-10-13T09:40:16;1005.93;;;25.35;54.98
48810;BME280;40070;47.322;18.784;2023-10-13T09:42:19;1005.95;;;25.48;54.29
48810;BME280;40070;47.322;18.784;2023-10-13T09:44:21;1005.95;;;25.72;53.58
48810;BME280;40070;47.322;18.784;2023-10-13T09:46:25;1005.94;;;25.66;53.52
48810;BME280;40070;47.322;18.784;2023-10-13T09:48:32;1005.93;;;26.01;52.93
48810;BME280;40070;47.322;18.784;2023-10-13T09:50:36;1005.91;;;26.20;52.13
48810;BME280;40070;47.322;18.784;2023-10-13T09:52:39;1005.90;;;26.58;51.52
48810;BME280;40070;47.322;18.784;2023-10-13T09:54:43;1005.89;;;26.49;51.18
48810;BME280;40070;47.322;18.784;2023-10-13T09:56:47;1005.84;;;26.76;50.77
48810;BME280;40070;47.322;18.784;2023-10-13T09:58:56;1005.82;;;26.50;50.45
48810;BME280;40070;47.322;18.784;2023-10-13T10:01:00;1005.80;;;26.91;49.10
48810;BME280;40070;47.322;18.784;2023-10-13T10:03:06;1005.77;;;27.12;49.19
48810;BME280;40070;47.322;18.784;2023-10-13T10:05:08;1005.71;;;27.05;48.59
48810;BME280;40070;47.322;18.784;2023-10-13T10:07:11;1005.70;;;27.22;48.41
48810;BME280;40070;47.322;18.784;2023-10-13T10:09:13;1005.69;;;27.47;47.82
48810;BME280;40070;47.322;18.784;2023-10-13T10:11:23;1005.62;;;27.73;47.44
48810;BME280;40070;47.322;18.784;2023-10-13T10:13:35;1005.59;;;27.91;46.55
48810;BME280;40070;47.322;18.784;2023-10-13T10:15:43;1005.52;;;27.91;46.12
48810;BME280;40070;47.322;18.784;2023-10-13T10:17:46;1005.55;;;27.91;45.38
48810;BME280;40070;47.322;18.784;2023-10-13T10:19:49;1005.54;;;27.81;45.03
48810;BME280;40070;47.322;18.784;2023-10-13T10:22:00;1005.52;;;27.87;45.47
48810;BME280;40070;47.322;18.784;2023-10-13T10:24:13;1005.46;;;28.14;45.13
48810;BME280;40070;47.322;18.784;2023-10-13T10:26:15;1005.46;;;28.37;43.90
48810;BME280;40070;47.322;18.784;2023-10-13T10:28:18;1005.40;;;28.27;42.65
48810;BME280;40070;47.322;18.784;2023-10-13T10:30:27;1005.41;;;28.25;42.91
48810;BME280;40070;47.322;18.784;2023-10-13T10:32:33;1005.38;;;28.15;43.24
48810;BME280;40070;47.322;18.784;2023-10-13T10:34:35;1005.41;;;28.40;42.72
48810;BME280;40070;47.322;18.784;2023-10-13T10:36:38;1005.40;;;28.58;42.63
48810;BME280;40070;47.322;18.784;2023-10-13T10:38:53;1005.33;;;28.87;41.42
48810;BME280;40070;47.322;18.784;2023-10-13T10:41:03;1005.30;;;28.81;41.33
48810;BME280;40070;47.322;18.784;2023-10-13T10:43:05;1005.26;;;28.99;41.16
48810;BME280;40070;47.322;18.784;2023-10-13T10:45:09;1005.22;;;28.65;41.32
48810;BME280;40070;47.322;18.784;2023-10-13T10:47:13;1005.19;;;28.86;41.10
48810;BME280;40070;47.322;18.784;2023-10-13T10:49:15;1005.15;;;28.70;40.76
48810;BME280;40070;47.322;18.784;2023-10-13T10:51:18;1005.19;;;28.55;41.06